sensor_id;sensor_type;location;lat;lon;timestamp;P1;durP1;ratioP1;P2;durP2;ratioP2
69046;SDS011;57261;47.504;19.084;2022-08-21T00:00:29;7.27;;;4.40;;
69046;SDS011;57261;47.504;19.084;2022-08-21T00:03:31;7.20;;;4.10;;
69046;SDS011;57261;47.504;19.084;2022-08-21T00:06:32;6.47;;;4.00;;
69046;SDS011;57261;47.504;19.084;2022-08-21T00:09:33;7.32;;;4.07;;
69046;SDS011;57261;47.504;19.084;2022-08-21T00:12:34;6.70;;;3.80;;
69046;SDS011;57261;47.504;19.084;2022-08-21T00:15:35;8.40;;;4.25;;
69046;SDS011;57261;47.504;19.084;2022-08-21T00:18:37;6.73;;;3.80;;
69046;SDS011;57261;47.504;19.084;2022-08-21T00:21:37;6.93;;;3.70;;
69046;SDS011;57261;47.504;19.084;2022-08-21T00:24:38;7.43;;;4.20;;
69046;SDS011;57261;47.504;19.084;2022-08-21T00:27:39;6.47;;;3.70;;
69046;SDS011;57261;47.504;19.084;2022-08-21T00:30:42;6.78;;;3.63;;
69046;SDS011;57261;47.504;19.084;2022-08-21T00:33:43;7.68;;;3.90;;
69046;SDS011;57261;47.504;19.084;2022-08-21T00:36:44;7.43;;;3.58;;
69046;SDS011;57261;47.504;19.084;2022-08-21T00:39:45;7.50;;;4.00;;
69046;SDS011;57261;47.504;19.084;2022-08-21T00:42:45;6.73;;;3.97;;
69046;SDS011;57261;47.504;19.084;2022-08-21T00:45:46;7.88;;;4.20;;
69046;SDS011;57261;47.504;19.084;2022-08-21T00:48:47;7.78;;;3.83;;
69046;SDS011;57261;47.504;19.084;2022-08-21T00:51:49;7.27;;;3.90;;
69046;SDS011;57261;47.504;19.084;2022-08-21T00:54:52;6.88;;;3.92;;
69046;SDS011;57261;47.504;19.084;2022-08-21T00:57:55;7.53;;;4.10;;
69046;SDS011;57261;47.504;19.084;2022-08-21T01:00:59;7.30;;;4.13;;
69046;SDS011;57261;47.504;19.084;2022-08-21T01:04:01;7.95;;;4.18;;
69046;SDS011;57261;47.504;19.084;2022-08-21T01:07:02;7.63;;;4.30;;
69046;SDS011;57261;47.504;19.084;2022-08-21T01:10:05;8.40;;;4.10;;
69046;SDS011;57261;47.504;19.084;2022-08-21T01:13:07;8.60;;;4.10;;
69046;SDS011;57261;47.504;19.084;2022-08-21T01:16:10;7.85;;;4.13;;
69046;SDS011;57261;47.504;19.084;2022-08-21T01:19:10;7.25;;;4.10;;
69046;SDS011;57261;47.504;19.084;2022-08-21T01:22:12;8.13;;;4.93;;
69046;SDS011;57261;47.504;19.084;2022-08-21T01:25:14;7.73;;;4.10;;
69046;SDS011;57261;47.504;19.084;2022-08-21T01:28:16;7.45;;;4.22;;
69046;SDS011;57261;47.504;19.084;2022-08-21T01:31:17;8.00;;;4.63;;
69046;SDS011;57261;47.504;19.084;2022-08-21T01:34:19;8.30;;;4.70;;
69046;SDS011;57261;47.504;19.084;2022-08-21T01:37:21;9.80;;;4.70;;
69046;SDS011;57261;47.504;19.084;2022-08-21T01:40:21;7.57;;;4.50;;
69046;SDS011;57261;47.504;19.084;2022-08-21T01:43:22;8.73;;;5.37;;
69046;SDS011;57261;47.504;19.084;2022-08-21T01:46:22;8.13;;;4.70;;
69046;SDS011;57261;47.504;19.084;2022-08-21T01:49:22;9.10;;;5.13;;
69046;SDS011;57261;47.504;19.084;2022-08-21T01:52:23;8.93;;;5.30;;
69046;SDS011;57261;47.504;19.084;2022-08-21T01:55:25;14.70;;;10.17;;
69046;SDS011;57261;47.504;19.084;2022-08-21T01:58:26;12.18;;;7.45;;
69046;SDS011;57261;47.504;19.084;2022-08-21T02:01:26;9.33;;;5.80;;
69046;SDS011;57261;47.504;19.084;2022-08-21T02:04:27;9.90;;;6.20;;
69046;SDS011;57261;47.504;19.084;2022-08-21T02:07:27;10.67;;;5.77;;
69046;SDS011;57261;47.504;19.084;2022-08-21T02:10:28;8.73;;;5.03;;
69046;SDS011;57261;47.504;19.084;2022-08-21T02:13:30;9.50;;;5.63;;
69046;SDS011;57261;47.504;19.084;2022-08-21T02:16:31;8.15;;;4.93;;
69046;SDS011;57261;47.504;19.084;2022-08-21T02:19:31;7.90;;;4.70;;
69046;SDS011;57261;47.504;19.084;2022-08-21T02:22:32;9.47;;;5.50;;
69046;SDS011;57261;47.504;19.084;2022-08-21T02:25:32;8.77;;;4.97;;
69046;SDS011;57261;47.504;19.084;2022-08-21T02:28:33;10.00;;;6.05;;
69046;SDS011;57261;47.504;19.084;2022-08-21T02:31:35;9.50;;;5.57;;
69046;SDS011;57261;47.504;19.084;2022-08-21T02:34:35;10.00;;;5.87;;
69046;SDS011;57261;47.504;19.084;2022-08-21T02:37:46;9.23;;;5.20;;
69046;SDS011;57261;47.504;19.084;2022-08-21T02:40:50;7.32;;;4.20;;
69046;SDS011;57261;47.504;19.084;2022-08-21T02:43:52;10.07;;;5.70;;
69046;SDS011;57261;47.504;19.084;2022-08-21T02:46:52;9.50;;;5.60;;
69046;SDS011;57261;47.504;19.084;2022-08-21T02:49:53;8.53;;;4.80;;
69046;SDS011;57261;47.504;19.084;2022-08-21T02:52:54;9.73;;;5.68;;
69046;SDS011;57261;47.504;19.084;2022-08-21T02:55:57;9.93;;;5.30;;
69046;SDS011;57261;47.504;19.084;2022-08-21T02:58:59;9.60;;;6.27;;
69046;SDS011;57261;47.504;19.084;2022-08-21T03:01:59;9.27;;;5.93;;
69046;SDS011;57261;47.504;19.084;2022-08-21T03:05:00;9.30;;;5.50;;
69046;SDS011;57261;47.504;19.084;2022-08-21T03:08:01;10.80;;;6.40;;
69046;SDS011;57261;47.504;19.084;2022-08-21T03:11:02;9.27;;;5.23;;
69046;SDS011;57261;47.504;19.084;2022-08-21T03:14:03;10.83;;;6.60;;
69046;SDS011;57261;47.504;19.084;2022-08-21T03:17:05;10.02;;;6.05;;
69046;SDS011;57261;47.504;19.084;2022-08-21T03:20:07;11.15;;;6.25;;
69046;SDS011;57261;47.504;19.084;2022-08-21T03:23:11;10.13;;;6.18;;
69046;SDS011;57261;47.504;19.084;2022-08-21T03:26:13;9.70;;;5.73;;
69046;SDS011;57261;47.504;19.084;2022-08-21T03:29:13;10.07;;;6.10;;
69046;SDS011;57261;47.504;19.084;2022-08-21T03:32:14;11.13;;;6.03;;
69046;SDS011;57261;47.504;19.084;2022-08-21T03:35:14;10.77;;;6.07;;
69046;SDS011;57261;47.504;19.084;2022-08-21T03:38:18;9.67;;;5.60;;
69046;SDS011;57261;47.504;19.084;2022-08-21T03:41:19;9.52;;;5.70;;
69046;SDS011;57261;47.504;19.084;2022-08-21T03:44:20;10.88;;;6.40;;
69046;SDS011;57261;47.504;19.084;2022-08-21T03:47:20;11.97;;;6.70;;
69046;SDS011;57261;47.504;19.084;2022-08-21T03:50:23;12.68;;;7.30;;
69046;SDS011;57261;47.504;19.084;2022-08-21T03:53:26;10.30;;;6.90;;
69046;SDS011;57261;47.504;19.084;2022-08-21T03:56:26;10.70;;;6.32;;
69046;SDS011;57261;47.504;19.084;2022-08-21T03:59:27;11.87;;;6.80;;
69046;SDS011;57261;47.504;19.084;2022-08-21T04:02:28;11.43;;;6.78;;
69046;SDS011;57261;47.504;19.084;2022-08-21T04:05:28;11.60;;;6.63;;
69046;SDS011;57261;47.504;19.084;2022-08-21T04:08:29;10.90;;;6.78;;
69046;SDS011;57261;47.504;19.084;2022-08-21T04:11:30;11.30;;;6.60;;
69046;SDS011;57261;47.504;19.084;2022-08-21T04:14:30;12.40;;;6.17;;
69046;SDS011;57261;47.504;19.084;2022-08-21T04:17:31;10.40;;;6.77;;
69046;SDS011;57261;47.504;19.084;2022-08-21T04:20:31;10.60;;;7.00;;
69046;SDS011;57261;47.504;19.084;2022-08-21T04:23:31;11.50;;;6.53;;
69046;SDS011;57261;47.504;19.084;2022-08-21T04:26:38;10.43;;;6.60;;
69046;SDS011;57261;47.504;19.084;2022-08-21T04:29:39;10.82;;;6.35;;
69046;SDS011;57261;47.504;19.084;2022-08-21T04:32:41;12.57;;;6.67;;
69046;SDS011;57261;47.504;19.084;2022-08-21T04:35:47;11.57;;;6.97;;
69046;SDS011;57261;47.504;19.084;2022-08-21T04:38:48;12.48;;;7.25;;
69046;SDS011;57261;47.504;19.084;2022-08-21T04:41:49;10.77;;;6.40;;
69046;SDS011;57261;47.504;19.084;2022-08-21T04:44:49;10.03;;;6.23;;
69046;SDS011;57261;47.504;19.084;2022-08-21T04:47:53;10.43;;;6.63;;
69046;SDS011;57261;47.504;19.084;2022-08-21T04:54:07;10.95;;;6.55;;
69046;SDS011;57261;47.504;19.084;2022-08-21T04:57:11;12.50;;;6.95;;
69046;SDS011;57261;47.504;19.084;2022-08-21T05:00:12;10.47;;;6.70;;
69046;SDS011;57261;47.504;19.084;2022-08-21T05:03:14;9.82;;;6.00;;
69046;SDS011;57261;47.504;19.084;2022-08-21T05:06:20;10.43;;;6.72;;
69046;SDS011;57261;47.504;19.084;2022-08-21T05:09:21;12.10;;;7.47;;
69046;SDS011;57261;47.504;19.084;2022-08-21T05:12:23;11.80;;;7.00;;
69046;SDS011;57261;47.504;19.084;2022-08-21T05:15:24;12.77;;;7.30;;
69046;SDS011;57261;47.504;19.084;2022-08-21T05:18:25;9.65;;;5.55;;
69046;SDS011;57261;47.504;19.084;2022-08-21T05:21:25;9.90;;;6.40;;
69046;SDS011;57261;47.504;19.084;2022-08-21T05:24:26;9.00;;;5.43;;
69046;SDS011;57261;47.504;19.084;2022-08-21T05:27:27;8.30;;;4.97;;
69046;SDS011;57261;47.504;19.084;2022-08-21T05:30:29;9.75;;;6.00;;
69046;SDS011;57261;47.504;19.084;2022-08-21T05:33:30;9.10;;;5.20;;
69046;SDS011;57261;47.504;19.084;2022-08-21T05:36:31;8.32;;;4.97;;
69046;SDS011;57261;47.504;19.084;2022-08-21T05:39:31;8.70;;;5.53;;
69046;SDS011;57261;47.504;19.084;2022-08-21T05:42:32;10.07;;;6.27;;
69046;SDS011;57261;47.504;19.084;2022-08-21T05:45:32;9.25;;;5.45;;
69046;SDS011;57261;47.504;19.084;2022-08-21T05:48:33;10.33;;;5.93;;
69046;SDS011;57261;47.504;19.084;2022-08-21T05:51:35;10.60;;;5.97;;
69046;SDS011;57261;47.504;19.084;2022-08-21T05:54:36;8.97;;;5.47;;
69046;SDS011;57261;47.504;19.084;2022-08-21T05:57:37;9.35;;;6.20;;
69046;SDS011;57261;47.504;19.084;2022-08-21T06:00:41;10.23;;;5.73;;
69046;SDS011;57261;47.504;19.084;2022-08-21T06:03:42;9.10;;;5.38;;
69046;SDS011;57261;47.504;19.084;2022-08-21T06:06:51;9.40;;;6.25;;
69046;SDS011;57261;47.504;19.084;2022-08-21T06:09:51;9.80;;;5.93;;
69046;SDS011;57261;47.504;19.084;2022-08-21T06:12:52;9.37;;;6.13;;
69046;SDS011;57261;47.504;19.084;2022-08-21T06:16:05;9.20;;;5.97;;
69046;SDS011;57261;47.504;19.084;2022-08-21T06:19:07;8.27;;;5.18;;
69046;SDS011;57261;47.504;19.084;2022-08-21T06:22:07;9.73;;;5.70;;
69046;SDS011;57261;47.504;19.084;2022-08-21T06:25:08;9.00;;;5.60;;
69046;SDS011;57261;47.504;19.084;2022-08-21T06:28:09;9.57;;;5.55;;
69046;SDS011;57261;47.504;19.084;2022-08-21T06:31:11;9.52;;;5.68;;
69046;SDS011;57261;47.504;19.084;2022-08-21T06:34:12;9.70;;;5.47;;
69046;SDS011;57261;47.504;19.084;2022-08-21T06:37:13;10.43;;;5.88;;
69046;SDS011;57261;47.504;19.084;2022-08-21T06:40:13;10.07;;;6.20;;
69046;SDS011;57261;47.504;19.084;2022-08-21T06:43:15;8.73;;;5.72;;
69046;SDS011;57261;47.504;19.084;2022-08-21T06:46:16;9.83;;;6.10;;
69046;SDS011;57261;47.504;19.084;2022-08-21T06:49:16;10.07;;;5.73;;
69046;SDS011;57261;47.504;19.084;2022-08-21T06:52:17;8.50;;;5.60;;
69046;SDS011;57261;47.504;19.084;2022-08-21T06:55:17;10.23;;;5.93;;
69046;SDS011;57261;47.504;19.084;2022-08-21T06:58:18;11.20;;;5.97;;
69046;SDS011;57261;47.504;19.084;2022-08-21T07:01:23;10.25;;;6.03;;
69046;SDS011;57261;47.504;19.084;2022-08-21T07:04:25;9.90;;;6.13;;
69046;SDS011;57261;47.504;19.084;2022-08-21T07:07:26;9.75;;;5.63;;
69046;SDS011;57261;47.504;19.084;2022-08-21T07:10:26;9.37;;;5.70;;
69046;SDS011;57261;47.504;19.084;2022-08-21T07:13:27;10.65;;;6.70;;
69046;SDS011;57261;47.504;19.084;2022-08-21T07:16:28;8.67;;;5.40;;
69046;SDS011;57261;47.504;19.084;2022-08-21T07:19:29;9.95;;;5.10;;
69046;SDS011;57261;47.504;19.084;2022-08-21T07:22:29;10.63;;;6.50;;
69046;SDS011;57261;47.504;19.084;2022-08-21T07:25:35;10.13;;;6.63;;
69046;SDS011;57261;47.504;19.084;2022-08-21T07:28:35;10.57;;;6.68;;
69046;SDS011;57261;47.504;19.084;2022-08-21T07:31:36;10.13;;;6.27;;
69046;SDS011;57261;47.504;19.084;2022-08-21T07:34:36;9.87;;;5.97;;
69046;SDS011;57261;47.504;19.084;2022-08-21T07:37:36;10.47;;;6.17;;
69046;SDS011;57261;47.504;19.084;2022-08-21T07:40:37;11.13;;;5.97;;
69046;SDS011;57261;47.504;19.084;2022-08-21T07:43:38;9.10;;;5.83;;
69046;SDS011;57261;47.504;19.084;2022-08-21T07:46:39;9.53;;;5.73;;
69046;SDS011;57261;47.504;19.084;2022-08-21T07:49:39;8.50;;;5.20;;
69046;SDS011;57261;47.504;19.084;2022-08-21T07:52:40;8.67;;;5.43;;
69046;SDS011;57261;47.504;19.084;2022-08-21T07:55:41;10.00;;;6.22;;
69046;SDS011;57261;47.504;19.084;2022-08-21T07:58:41;10.00;;;6.03;;
69046;SDS011;57261;47.504;19.084;2022-08-21T08:01:42;10.47;;;5.70;;
69046;SDS011;57261;47.504;19.084;2022-08-21T08:04:42;9.18;;;5.18;;
69046;SDS011;57261;47.504;19.084;2022-08-21T08:07:43;9.10;;;5.43;;
69046;SDS011;57261;47.504;19.084;2022-08-21T08:10:43;8.30;;;5.10;;
69046;SDS011;57261;47.504;19.084;2022-08-21T08:13:46;8.80;;;5.60;;
69046;SDS011;57261;47.504;19.084;2022-08-21T08:16:48;10.43;;;6.10;;
69046;SDS011;57261;47.504;19.084;2022-08-21T08:19:49;9.67;;;5.70;;
69046;SDS011;57261;47.504;19.084;2022-08-21T08:22:50;10.73;;;5.87;;
69046;SDS011;57261;47.504;19.084;2022-08-21T08:25:50;8.80;;;5.67;;
69046;SDS011;57261;47.504;19.084;2022-08-21T08:28:51;10.40;;;5.83;;
69046;SDS011;57261;47.504;19.084;2022-08-21T08:31:51;9.32;;;5.72;;
69046;SDS011;57261;47.504;19.084;2022-08-21T08:34:52;9.77;;;6.53;;
69046;SDS011;57261;47.504;19.084;2022-08-21T08:37:52;8.47;;;5.67;;
69046;SDS011;57261;47.504;19.084;2022-08-21T08:44:16;9.63;;;5.88;;
69046;SDS011;57261;47.504;19.084;2022-08-21T08:47:17;10.17;;;5.57;;
69046;SDS011;57261;47.504;19.084;2022-08-21T08:50:24;9.13;;;5.40;;
69046;SDS011;57261;47.504;19.084;2022-08-21T08:53:52;9.90;;;5.40;;
69046;SDS011;57261;47.504;19.084;2022-08-21T08:57:00;9.82;;;5.80;;
69046;SDS011;57261;47.504;19.084;2022-08-21T09:00:09;9.67;;;6.20;;
69046;SDS011;57261;47.504;19.084;2022-08-21T09:03:13;9.30;;;6.33;;
69046;SDS011;57261;47.504;19.084;2022-08-21T09:09:31;9.30;;;6.07;;
69046;SDS011;57261;47.504;19.084;2022-08-21T09:12:56;10.63;;;6.75;;
69046;SDS011;57261;47.504;19.084;2022-08-21T09:23:11;11.38;;;6.85;;
69046;SDS011;57261;47.504;19.084;2022-08-21T09:26:25;9.97;;;6.23;;
69046;SDS011;57261;47.504;19.084;2022-08-21T09:29:28;10.57;;;5.97;;
69046;SDS011;57261;47.504;19.084;2022-08-21T09:32:31;9.35;;;6.15;;
69046;SDS011;57261;47.504;19.084;2022-08-21T09:35:47;8.80;;;5.97;;
69046;SDS011;57261;47.504;19.084;2022-08-21T09:38:52;11.00;;;6.68;;
69046;SDS011;57261;47.504;19.084;2022-08-21T09:41:59;10.87;;;6.77;;
69046;SDS011;57261;47.504;19.084;2022-08-21T09:45:06;9.80;;;6.60;;
69046;SDS011;57261;47.504;19.084;2022-08-21T09:48:19;9.63;;;6.43;;
69046;SDS011;57261;47.504;19.084;2022-08-21T09:51:23;10.60;;;6.40;;
69046;SDS011;57261;47.504;19.084;2022-08-21T09:54:34;10.63;;;6.60;;
69046;SDS011;57261;47.504;19.084;2022-08-21T09:57:38;10.70;;;6.10;;
69046;SDS011;57261;47.504;19.084;2022-08-21T10:00:39;10.20;;;6.93;;
69046;SDS011;57261;47.504;19.084;2022-08-21T10:03:39;10.87;;;6.77;;
69046;SDS011;57261;47.504;19.084;2022-08-21T10:06:40;11.10;;;7.30;;
69046;SDS011;57261;47.504;19.084;2022-08-21T10:09:41;11.27;;;7.88;;
69046;SDS011;57261;47.504;19.084;2022-08-21T10:12:45;11.80;;;7.15;;
69046;SDS011;57261;47.504;19.084;2022-08-21T10:16:20;12.33;;;6.97;;
69046;SDS011;57261;47.504;19.084;2022-08-21T10:32:18;11.60;;;7.70;;
69046;SDS011;57261;47.504;19.084;2022-08-21T10:35:39;10.73;;;7.30;;
69046;SDS011;57261;47.504;19.084;2022-08-21T10:38:55;12.85;;;7.10;;
69046;SDS011;57261;47.504;19.084;2022-08-21T10:45:24;11.95;;;7.90;;
69046;SDS011;57261;47.504;19.084;2022-08-21T10:48:29;12.27;;;7.93;;
69046;SDS011;57261;47.504;19.084;2022-08-21T10:51:42;10.30;;;7.43;;
69046;SDS011;57261;47.504;19.084;2022-08-21T10:55:01;10.32;;;6.72;;
69046;SDS011;57261;47.504;19.084;2022-08-21T10:58:10;10.15;;;7.10;;
69046;SDS011;57261;47.504;19.084;2022-08-21T11:01:33;10.90;;;6.88;;
69046;SDS011;57261;47.504;19.084;2022-08-21T11:08:07;11.53;;;6.20;;
69046;SDS011;57261;47.504;19.084;2022-08-21T11:14:39;9.63;;;6.90;;
69046;SDS011;57261;47.504;19.084;2022-08-21T11:18:32;10.65;;;6.35;;
69046;SDS011;57261;47.504;19.084;2022-08-21T11:24:50;12.60;;;8.63;;
69046;SDS011;57261;47.504;19.084;2022-08-21T11:50:53;9.88;;;6.10;;
69046;SDS011;57261;47.504;19.084;2022-08-21T11:57:22;9.90;;;6.87;;
69046;SDS011;57261;47.504;19.084;2022-08-21T12:00:37;12.25;;;7.10;;
69046;SDS011;57261;47.504;19.084;2022-08-21T12:03:51;11.68;;;6.97;;
69046;SDS011;57261;47.504;19.084;2022-08-21T12:06:56;10.18;;;7.00;;
69046;SDS011;57261;47.504;19.084;2022-08-21T12:09:57;11.80;;;7.10;;
69046;SDS011;57261;47.504;19.084;2022-08-21T12:13:05;10.83;;;6.87;;
69046;SDS011;57261;47.504;19.084;2022-08-21T12:16:12;11.80;;;8.27;;
69046;SDS011;57261;47.504;19.084;2022-08-21T12:22:35;10.43;;;6.60;;
69046;SDS011;57261;47.504;19.084;2022-08-21T12:28:43;10.80;;;7.33;;
69046;SDS011;57261;47.504;19.084;2022-08-21T12:32:27;11.57;;;6.90;;
69046;SDS011;57261;47.504;19.084;2022-08-21T12:35:18;11.05;;;6.35;;
69046;SDS011;57261;47.504;19.084;2022-08-21T12:38:28;10.23;;;6.87;;
69046;SDS011;57261;47.504;19.084;2022-08-21T12:41:44;11.15;;;7.32;;
69046;SDS011;57261;47.504;19.084;2022-08-21T12:44:50;10.57;;;6.65;;
69046;SDS011;57261;47.504;19.084;2022-08-21T12:51:17;12.55;;;7.40;;
69046;SDS011;57261;47.504;19.084;2022-08-21T12:54:27;11.07;;;7.37;;
69046;SDS011;57261;47.504;19.084;2022-08-21T12:57:29;10.40;;;6.25;;
69046;SDS011;57261;47.504;19.084;2022-08-21T13:00:30;12.15;;;7.85;;
69046;SDS011;57261;47.504;19.084;2022-08-21T13:03:31;12.43;;;7.87;;
69046;SDS011;57261;47.504;19.084;2022-08-21T13:06:38;16.27;;;12.38;;
69046;SDS011;57261;47.504;19.084;2022-08-21T13:09:52;14.90;;;10.38;;
69046;SDS011;57261;47.504;19.084;2022-08-21T13:13:21;13.38;;;8.48;;
69046;SDS011;57261;47.504;19.084;2022-08-21T13:16:25;13.03;;;8.30;;
69046;SDS011;57261;47.504;19.084;2022-08-21T13:19:27;12.80;;;8.37;;
69046;SDS011;57261;47.504;19.084;2022-08-21T13:22:30;13.25;;;7.88;;
69046;SDS011;57261;47.504;19.084;2022-08-21T13:25:35;16.13;;;9.07;;
69046;SDS011;57261;47.504;19.084;2022-08-21T13:28:37;15.68;;;8.60;;
69046;SDS011;57261;47.504;19.084;2022-08-21T13:31:38;14.77;;;9.07;;
69046;SDS011;57261;47.504;19.084;2022-08-21T13:34:42;15.30;;;9.18;;
69046;SDS011;57261;47.504;19.084;2022-08-21T13:37:43;14.15;;;8.68;;
69046;SDS011;57261;47.504;19.084;2022-08-21T13:40:48;13.63;;;8.30;;
69046;SDS011;57261;47.504;19.084;2022-08-21T13:43:58;12.30;;;7.93;;
69046;SDS011;57261;47.504;19.084;2022-08-21T13:47:04;11.88;;;7.18;;
69046;SDS011;57261;47.504;19.084;2022-08-21T13:50:06;11.13;;;7.28;;
69046;SDS011;57261;47.504;19.084;2022-08-21T13:53:18;10.83;;;6.80;;
69046;SDS011;57261;47.504;19.084;2022-08-21T13:56:23;10.97;;;6.60;;
69046;SDS011;57261;47.504;19.084;2022-08-21T13:59:43;11.15;;;6.30;;
69046;SDS011;57261;47.504;19.084;2022-08-21T14:02:45;8.73;;;5.83;;
69046;SDS011;57261;47.504;19.084;2022-08-21T14:05:50;10.10;;;6.13;;
69046;SDS011;57261;47.504;19.084;2022-08-21T14:08:51;9.77;;;6.60;;
69046;SDS011;57261;47.504;19.084;2022-08-21T14:12:02;8.85;;;5.10;;
69046;SDS011;57261;47.504;19.084;2022-08-21T14:15:22;9.85;;;5.90;;
69046;SDS011;57261;47.504;19.084;2022-08-21T14:18:25;12.10;;;5.90;;
69046;SDS011;57261;47.504;19.084;2022-08-21T14:21:41;10.35;;;6.47;;
69046;SDS011;57261;47.504;19.084;2022-08-21T14:24:46;8.23;;;5.07;;
69046;SDS011;57261;47.504;19.084;2022-08-21T14:27:50;9.00;;;5.28;;
69046;SDS011;57261;47.504;19.084;2022-08-21T14:31:20;7.60;;;4.67;;
69046;SDS011;57261;47.504;19.084;2022-08-21T14:34:22;8.32;;;5.20;;
69046;SDS011;57261;47.504;19.084;2022-08-21T14:37:26;7.72;;;4.82;;
69046;SDS011;57261;47.504;19.084;2022-08-21T14:40:26;7.80;;;4.78;;
69046;SDS011;57261;47.504;19.084;2022-08-21T14:43:27;7.40;;;4.70;;
69046;SDS011;57261;47.504;19.084;2022-08-21T14:46:29;7.97;;;5.00;;
69046;SDS011;57261;47.504;19.084;2022-08-21T14:49:31;7.22;;;4.60;;
69046;SDS011;57261;47.504;19.084;2022-08-21T14:52:32;8.43;;;4.33;;
69046;SDS011;57261;47.504;19.084;2022-08-21T14:55:32;7.00;;;4.40;;
69046;SDS011;57261;47.504;19.084;2022-08-21T14:58:55;10.13;;;7.68;;
69046;SDS011;57261;47.504;19.084;2022-08-21T15:02:02;8.93;;;6.40;;
69046;SDS011;57261;47.504;19.084;2022-08-21T15:05:04;11.13;;;6.33;;
69046;SDS011;57261;47.504;19.084;2022-08-21T15:08:05;13.15;;;8.35;;
69046;SDS011;57261;47.504;19.084;2022-08-21T15:11:06;9.60;;;6.60;;
69046;SDS011;57261;47.504;19.084;2022-08-21T15:14:10;12.73;;;9.17;;
69046;SDS011;57261;47.504;19.084;2022-08-21T15:17:14;10.00;;;7.00;;
69046;SDS011;57261;47.504;19.084;2022-08-21T15:20:15;9.07;;;4.78;;
69046;SDS011;57261;47.504;19.084;2022-08-21T15:23:16;7.00;;;3.60;;
69046;SDS011;57261;47.504;19.084;2022-08-21T15:26:20;7.22;;;3.72;;
69046;SDS011;57261;47.504;19.084;2022-08-21T15:29:22;6.40;;;3.47;;
69046;SDS011;57261;47.504;19.084;2022-08-21T15:32:26;6.93;;;3.47;;
69046;SDS011;57261;47.504;19.084;2022-08-21T15:35:29;6.47;;;3.37;;
69046;SDS011;57261;47.504;19.084;2022-08-21T15:38:29;5.93;;;3.08;;
69046;SDS011;57261;47.504;19.084;2022-08-21T15:41:30;6.63;;;3.77;;
69046;SDS011;57261;47.504;19.084;2022-08-21T15:44:30;6.80;;;4.13;;
69046;SDS011;57261;47.504;19.084;2022-08-21T15:47:31;8.27;;;5.20;;
69046;SDS011;57261;47.504;19.084;2022-08-21T15:50:34;8.73;;;4.97;;
69046;SDS011;57261;47.504;19.084;2022-08-21T15:53:34;6.93;;;4.20;;
69046;SDS011;57261;47.504;19.084;2022-08-21T15:56:39;10.40;;;5.45;;
69046;SDS011;57261;47.504;19.084;2022-08-21T15:59:44;7.40;;;4.53;;
69046;SDS011;57261;47.504;19.084;2022-08-21T16:02:47;6.97;;;3.50;;
69046;SDS011;57261;47.504;19.084;2022-08-21T16:05:50;6.75;;;3.55;;
69046;SDS011;57261;47.504;19.084;2022-08-21T16:08:52;7.23;;;3.57;;
69046;SDS011;57261;47.504;19.084;2022-08-21T16:11:53;6.38;;;3.50;;
69046;SDS011;57261;47.504;19.084;2022-08-21T16:14:53;6.50;;;3.13;;
69046;SDS011;57261;47.504;19.084;2022-08-21T16:17:54;7.20;;;3.60;;
69046;SDS011;57261;47.504;19.084;2022-08-21T16:20:55;6.50;;;3.40;;
69046;SDS011;57261;47.504;19.084;2022-08-21T16:23:55;6.47;;;3.33;;
69046;SDS011;57261;47.504;19.084;2022-08-21T16:26:56;11.40;;;7.20;;
69046;SDS011;57261;47.504;19.084;2022-08-21T16:29:56;13.52;;;6.68;;
69046;SDS011;57261;47.504;19.084;2022-08-21T16:32:58;7.90;;;4.00;;
69046;SDS011;57261;47.504;19.084;2022-08-21T16:36:01;7.53;;;3.72;;
69046;SDS011;57261;47.504;19.084;2022-08-21T16:39:02;6.95;;;3.35;;
69046;SDS011;57261;47.504;19.084;2022-08-21T16:42:02;7.93;;;3.53;;
69046;SDS011;57261;47.504;19.084;2022-08-21T16:45:04;6.47;;;3.53;;
69046;SDS011;57261;47.504;19.084;2022-08-21T16:48:07;8.18;;;5.03;;
69046;SDS011;57261;47.504;19.084;2022-08-21T16:51:08;7.07;;;4.00;;
69046;SDS011;57261;47.504;19.084;2022-08-21T16:54:09;7.47;;;3.93;;
69046;SDS011;57261;47.504;19.084;2022-08-21T16:57:10;7.38;;;4.20;;
69046;SDS011;57261;47.504;19.084;2022-08-21T17:00:12;8.17;;;4.50;;
69046;SDS011;57261;47.504;19.084;2022-08-21T17:03:15;7.28;;;3.90;;
69046;SDS011;57261;47.504;19.084;2022-08-21T17:06:17;6.40;;;3.45;;
69046;SDS011;57261;47.504;19.084;2022-08-21T17:09:18;6.50;;;3.50;;
69046;SDS011;57261;47.504;19.084;2022-08-21T17:12:19;7.50;;;3.40;;
69046;SDS011;57261;47.504;19.084;2022-08-21T17:15:21;6.10;;;3.00;;
69046;SDS011;57261;47.504;19.084;2022-08-21T17:18:26;7.10;;;3.23;;
69046;SDS011;57261;47.504;19.084;2022-08-21T17:21:30;8.90;;;3.30;;
69046;SDS011;57261;47.504;19.084;2022-08-21T17:24:30;9.77;;;4.00;;
69046;SDS011;57261;47.504;19.084;2022-08-21T17:27:31;8.77;;;3.40;;
69046;SDS011;57261;47.504;19.084;2022-08-21T17:30:32;9.02;;;3.88;;
69046;SDS011;57261;47.504;19.084;2022-08-21T17:33:39;7.80;;;4.50;;
69046;SDS011;57261;47.504;19.084;2022-08-21T17:36:49;7.63;;;3.67;;
69046;SDS011;57261;47.504;19.084;2022-08-21T17:39:49;7.85;;;4.00;;
69046;SDS011;57261;47.504;19.084;2022-08-21T17:42:50;7.80;;;4.60;;
69046;SDS011;57261;47.504;19.084;2022-08-21T17:45:50;8.50;;;5.07;;
69046;SDS011;57261;47.504;19.084;2022-08-21T17:48:51;7.10;;;3.70;;
69046;SDS011;57261;47.504;19.084;2022-08-21T17:51:51;7.82;;;3.70;;
69046;SDS011;57261;47.504;19.084;2022-08-21T17:54:52;6.90;;;3.10;;
69046;SDS011;57261;47.504;19.084;2022-08-21T17:57:52;8.00;;;3.43;;
69046;SDS011;57261;47.504;19.084;2022-08-21T18:00:54;8.55;;;3.88;;
69046;SDS011;57261;47.504;19.084;2022-08-21T18:03:55;7.30;;;3.30;;
69046;SDS011;57261;47.504;19.084;2022-08-21T18:06:55;7.13;;;3.40;;
69046;SDS011;57261;47.504;19.084;2022-08-21T18:09:56;7.45;;;3.20;;
69046;SDS011;57261;47.504;19.084;2022-08-21T18:12:57;6.90;;;3.20;;
69046;SDS011;57261;47.504;19.084;2022-08-21T18:16:02;7.63;;;3.60;;
69046;SDS011;57261;47.504;19.084;2022-08-21T18:19:05;7.57;;;3.60;;
69046;SDS011;57261;47.504;19.084;2022-08-21T18:22:09;7.13;;;3.40;;
69046;SDS011;57261;47.504;19.084;2022-08-21T18:25:09;6.67;;;3.07;;
69046;SDS011;57261;47.504;19.084;2022-08-21T18:28:10;7.33;;;2.90;;
69046;SDS011;57261;47.504;19.084;2022-08-21T18:31:11;7.03;;;2.80;;
69046;SDS011;57261;47.504;19.084;2022-08-21T18:34:17;6.10;;;2.93;;
69046;SDS011;57261;47.504;19.084;2022-08-21T18:37:24;5.90;;;2.87;;
69046;SDS011;57261;47.504;19.084;2022-08-21T18:40:25;5.85;;;2.75;;
69046;SDS011;57261;47.504;19.084;2022-08-21T18:43:25;6.63;;;2.77;;
69046;SDS011;57261;47.504;19.084;2022-08-21T18:46:26;6.40;;;2.77;;
69046;SDS011;57261;47.504;19.084;2022-08-21T18:49:27;6.47;;;2.95;;
69046;SDS011;57261;47.504;19.084;2022-08-21T18:52:28;6.37;;;3.23;;
69046;SDS011;57261;47.504;19.084;2022-08-21T18:55:28;6.75;;;3.17;;
69046;SDS011;57261;47.504;19.084;2022-08-21T18:58:29;6.27;;;2.80;;
69046;SDS011;57261;47.504;19.084;2022-08-21T19:01:30;7.00;;;3.40;;
69046;SDS011;57261;47.504;19.084;2022-08-21T19:04:31;7.37;;;3.37;;
69046;SDS011;57261;47.504;19.084;2022-08-21T19:07:32;7.83;;;4.20;;
69046;SDS011;57261;47.504;19.084;2022-08-21T19:10:36;7.00;;;3.57;;
69046;SDS011;57261;47.504;19.084;2022-08-21T19:13:36;7.05;;;3.50;;
69046;SDS011;57261;47.504;19.084;2022-08-21T19:16:38;7.18;;;3.30;;
69046;SDS011;57261;47.504;19.084;2022-08-21T19:19:40;7.25;;;3.90;;